Virgin Gorda, British Virgin Islands
Current Conditions -  °F | °C
As of 7:00 AM on Saturday 25 Oct 2014 (Local Time) from TUPJ Reporting Station
Scattered Clouds Scattered Clouds  
Wind Chill: 82°   Ceiling: Unl
Heat Index: 89°   Visibility: 6mi
Dew Point: 75°   Wind: 8mph
Humidity: 79%   Direction: 110°ESE
Pressure: 29.91"   Gusts: NA
Location:  18.45°N, 64.43°W
Report Text: TUPJ 251100Z 11007KT 9999 SCT019 28/24 Q1013 RMK A2992
Loading
Personal Weather Stations






























Interactive Weather Map
Tropical Storm Tracking
New forecast layout! Learn more

10-Day Weather Forecast

Advertisements
Track Severe Weather on mobile